sensor_id;sensor_type;location;lat;lon;timestamp;pressure;altitude;pressure_sealevel;temperature;humidity
43711;BME280;29309;42.682;23.372;2022-08-21T00:01:14;94689.75;;;19.52;93.37
43711;BME280;29309;42.682;23.372;2022-08-21T00:03:41;94682.00;;;19.51;93.06
43711;BME280;29309;42.682;23.372;2022-08-21T00:06:06;94688.38;;;19.55;92.54
43711;BME280;29309;42.682;23.372;2022-08-21T00:08:32;94684.06;;;19.44;92.79
43711;BME280;29309;42.682;23.372;2022-08-21T00:10:58;94669.97;;;19.42;93.21
43711;BME280;29309;42.682;23.372;2022-08-21T00:13:24;94659.41;;;19.43;93.28
43711;BME280;29309;42.682;23.372;2022-08-21T00:15:50;94674.22;;;19.47;93.48
43711;BME280;29309;42.682;23.372;2022-08-21T00:18:16;94666.47;;;19.46;93.54
43711;BME280;29309;42.682;23.372;2022-08-21T00:20:43;94663.75;;;19.62;92.48
43711;BME280;29309;42.682;23.372;2022-08-21T00:23:09;94673.72;;;19.77;91.36
43711;BME280;29309;42.682;23.372;2022-08-21T00:25:35;94667.28;;;19.64;91.46
43711;BME280;29309;42.682;23.372;2022-08-21T00:28:00;94653.88;;;19.55;91.71
43711;BME280;29309;42.682;23.372;2022-08-21T00:30:28;94655.31;;;19.60;92.30
43711;BME280;29309;42.682;23.372;2022-08-21T00:32:55;94645.44;;;19.59;92.04
43711;BME280;29309;42.682;23.372;2022-08-21T00:35:26;94656.72;;;19.59;91.75
43711;BME280;29309;42.682;23.372;2022-08-21T00:37:52;94642.66;;;19.63;91.55
43711;BME280;29309;42.682;23.372;2022-08-21T00:40:22;94643.31;;;19.55;91.78
43711;BME280;29309;42.682;23.372;2022-08-21T00:42:48;94656.69;;;19.53;92.23
43711;BME280;29309;42.682;23.372;2022-08-21T00:45:15;94665.84;;;19.55;92.33
43711;BME280;29309;42.682;23.372;2022-08-21T00:47:40;94662.41;;;19.67;92.37
43711;BME280;29309;42.682;23.372;2022-08-21T00:50:07;94661.72;;;19.73;91.78
43711;BME280;29309;42.682;23.372;2022-08-21T00:52:34;94668.75;;;19.70;91.72
43711;BME280;29309;42.682;23.372;2022-08-21T00:55:05;94672.97;;;19.69;91.62
43711;BME280;29309;42.682;23.372;2022-08-21T00:57:37;94670.81;;;19.63;91.97
43711;BME280;29309;42.682;23.372;2022-08-21T01:00:12;94665.88;;;19.59;91.95
43711;BME280;29309;42.682;23.372;2022-08-21T01:02:38;94648.31;;;19.69;91.58
43711;BME280;29309;42.682;23.372;2022-08-21T01:05:05;94651.84;;;19.70;91.48
43711;BME280;29309;42.682;23.372;2022-08-21T01:07:30;94651.81;;;19.65;91.83
43711;BME280;29309;42.682;23.372;2022-08-21T01:09:57;94640.63;;;19.78;90.11
43711;BME280;29309;42.682;23.372;2022-08-21T01:12:23;94635.63;;;19.64;90.81
43711;BME280;29309;42.682;23.372;2022-08-21T01:14:49;94643.41;;;19.68;91.15
43711;BME280;29309;42.682;23.372;2022-08-21T01:17:16;94639.19;;;19.71;91.46
43711;BME280;29309;42.682;23.372;2022-08-21T01:19:42;94637.78;;;19.70;92.22
43711;BME280;29309;42.682;23.372;2022-08-21T01:22:08;94644.81;;;19.73;92.40
43711;BME280;29309;42.682;23.372;2022-08-21T01:24:35;94644.13;;;19.76;92.68
43711;BME280;29309;42.682;23.372;2022-08-21T01:27:01;94625.09;;;19.71;92.46
43711;BME280;29309;42.682;23.372;2022-08-21T01:29:32;94628.66;;;19.77;92.45
43711;BME280;29309;42.682;23.372;2022-08-21T01:32:04;94623.03;;;19.77;92.01
43711;BME280;29309;42.682;23.372;2022-08-21T01:34:30;94624.41;;;19.76;92.10
43711;BME280;29309;42.682;23.372;2022-08-21T01:36:56;94618.75;;;19.72;92.26
43711;BME280;29309;42.682;23.372;2022-08-21T01:39:22;94628.00;;;19.87;91.74
43711;BME280;29309;42.682;23.372;2022-08-21T01:41:47;94635.75;;;19.86;91.48
43711;BME280;29309;42.682;23.372;2022-08-21T01:44:13;94651.16;;;19.71;91.73
43711;BME280;29309;42.682;23.372;2022-08-21T01:46:39;94649.72;;;19.66;91.62
43711;BME280;29309;42.682;23.372;2022-08-21T01:49:05;94637.09;;;19.77;91.35
43711;BME280;29309;42.682;23.372;2022-08-21T01:51:31;94639.31;;;19.97;89.60
43711;BME280;29309;42.682;23.372;2022-08-21T01:53:56;94639.34;;;19.99;88.20
43711;BME280;29309;42.682;23.372;2022-08-21T01:56:22;94638.66;;;20.02;87.86
43711;BME280;29309;42.682;23.372;2022-08-21T01:58:49;94645.69;;;20.01;86.86
43711;BME280;29309;42.682;23.372;2022-08-21T02:01:15;94643.47;;;19.80;88.23
43711;BME280;29309;42.682;23.372;2022-08-21T02:03:41;94640.63;;;19.80;88.35
43711;BME280;29309;42.682;23.372;2022-08-21T02:06:11;94645.47;;;19.65;88.38
43711;BME280;29309;42.682;23.372;2022-08-21T02:08:37;94646.84;;;19.56;89.37
43711;BME280;29309;42.682;23.372;2022-08-21T02:11:03;94656.03;;;19.64;89.83
43711;BME280;29309;42.682;23.372;2022-08-21T02:13:28;94655.34;;;19.64;89.92
43711;BME280;29309;42.682;23.372;2022-08-21T02:15:54;94658.13;;;19.62;90.21
43711;BME280;29309;42.682;23.372;2022-08-21T02:18:19;94651.91;;;19.78;89.79
43711;BME280;29309;42.682;23.372;2022-08-21T02:20:47;94651.16;;;19.71;89.94
43711;BME280;29309;42.682;23.372;2022-08-21T02:23:14;94659.63;;;19.71;90.17
43711;BME280;29309;42.682;23.372;2022-08-21T02:25:40;94653.97;;;19.73;89.79
43711;BME280;29309;42.682;23.372;2022-08-21T02:28:09;94656.84;;;19.83;89.09
43711;BME280;29309;42.682;23.372;2022-08-21T02:30:38;94659.66;;;19.83;88.25
43711;BME280;29309;42.682;23.372;2022-08-21T02:33:05;94666.53;;;19.52;88.99
43711;BME280;29309;42.682;23.372;2022-08-21T02:35:31;94670.53;;;19.29;90.12
43711;BME280;29309;42.682;23.372;2022-08-21T02:38:00;94671.66;;;18.97;92.96
43711;BME280;29309;42.682;23.372;2022-08-21T02:40:29;94661.84;;;18.98;93.51
43711;BME280;29309;42.682;23.372;2022-08-21T02:42:56;94659.81;;;19.09;93.44
43711;BME280;29309;42.682;23.372;2022-08-21T02:45:22;94659.00;;;18.96;93.66
43711;BME280;29309;42.682;23.372;2022-08-21T02:47:53;94657.59;;;18.97;94.11
43711;BME280;29309;42.682;23.372;2022-08-21T02:50:25;94649.16;;;18.99;94.59
43711;BME280;29309;42.682;23.372;2022-08-21T02:52:51;94658.44;;;19.14;94.12
43711;BME280;29309;42.682;23.372;2022-08-21T02:55:18;94667.03;;;19.30;94.05
43711;BME280;29309;42.682;23.372;2022-08-21T02:57:45;94678.97;;;19.29;93.94
43711;BME280;29309;42.682;23.372;2022-08-21T03:00:11;94667.75;;;19.33;92.98
43711;BME280;29309;42.682;23.372;2022-08-21T03:02:38;94669.81;;;19.28;92.81
43711;BME280;29309;42.682;23.372;2022-08-21T03:05:05;94662.75;;;19.23;92.65
43711;BME280;29309;42.682;23.372;2022-08-21T03:07:30;94664.13;;;19.20;92.44
43711;BME280;29309;42.682;23.372;2022-08-21T03:09:56;94663.19;;;18.93;93.99
43711;BME280;29309;42.682;23.372;2022-08-21T03:12:22;94666.00;;;18.93;95.47
43711;BME280;29309;42.682;23.372;2022-08-21T03:14:47;94668.94;;;19.05;95.04
43711;BME280;29309;42.682;23.372;2022-08-21T03:17:13;94657.75;;;19.13;94.83
43711;BME280;29309;42.682;23.372;2022-08-21T03:19:38;94663.50;;;19.30;93.02
43711;BME280;29309;42.682;23.372;2022-08-21T03:22:04;94661.41;;;19.32;92.37
43711;BME280;29309;42.682;23.372;2022-08-21T03:24:30;94664.97;;;19.37;91.20
43711;BME280;29309;42.682;23.372;2022-08-21T03:26:56;94659.41;;;19.43;90.67
43711;BME280;29309;42.682;23.372;2022-08-21T03:29:22;94672.13;;;19.46;91.11
43711;BME280;29309;42.682;23.372;2022-08-21T03:31:47;94670.63;;;19.41;91.09
43711;BME280;29309;42.682;23.372;2022-08-21T03:34:13;94667.88;;;19.45;91.33
43711;BME280;29309;42.682;23.372;2022-08-21T03:36:39;94662.25;;;19.47;90.77
43711;BME280;29309;42.682;23.372;2022-08-21T03:39:04;94671.44;;;19.51;90.54
43711;BME280;29309;42.682;23.372;2022-08-21T03:41:30;94665.06;;;19.45;90.59
43711;BME280;29309;42.682;23.372;2022-08-21T03:43:56;94662.88;;;19.39;91.24
43711;BME280;29309;42.682;23.372;2022-08-21T03:46:21;94665.75;;;19.41;90.90
43711;BME280;29309;42.682;23.372;2022-08-21T03:48:47;94668.38;;;19.23;91.60
43711;BME280;29309;42.682;23.372;2022-08-21T03:51:12;94664.63;;;18.96;92.69
43711;BME280;29309;42.682;23.372;2022-08-21T03:53:38;94668.84;;;18.97;93.02
43711;BME280;29309;42.682;23.372;2022-08-21T03:56:04;94668.00;;;18.83;93.63
43711;BME280;29309;42.682;23.372;2022-08-21T03:58:29;94661.72;;;18.86;93.54
43711;BME280;29309;42.682;23.372;2022-08-21T04:00:57;94675.69;;;18.78;93.70
43711;BME280;29309;42.682;23.372;2022-08-21T04:03:24;94674.31;;;18.77;93.87
43711;BME280;29309;42.682;23.372;2022-08-21T04:05:50;94679.22;;;18.77;93.77
43711;BME280;29309;42.682;23.372;2022-08-21T04:08:16;94681.31;;;18.78;94.53
43711;BME280;29309;42.682;23.372;2022-08-21T04:10:46;94684.91;;;18.85;93.80
43711;BME280;29309;42.682;23.372;2022-08-21T04:13:12;94685.47;;;18.71;94.33
43711;BME280;29309;42.682;23.372;2022-08-21T04:15:39;94689.50;;;18.52;95.37
43711;BME280;29309;42.682;23.372;2022-08-21T04:18:05;94681.16;;;18.62;95.42
43711;BME280;29309;42.682;23.372;2022-08-21T04:20:32;94673.84;;;18.37;96.08
43711;BME280;29309;42.682;23.372;2022-08-21T04:22:58;94676.00;;;18.42;95.97
43711;BME280;29309;42.682;23.372;2022-08-21T04:25:23;94671.28;;;18.59;95.40
43711;BME280;29309;42.682;23.372;2022-08-21T04:27:50;94666.44;;;18.67;95.51
43711;BME280;29309;42.682;23.372;2022-08-21T04:30:16;94668.69;;;18.77;95.10
43711;BME280;29309;42.682;23.372;2022-08-21T04:32:47;94672.88;;;18.76;93.81
43711;BME280;29309;42.682;23.372;2022-08-21T04:35:14;94679.69;;;18.57;94.51
43711;BME280;29309;42.682;23.372;2022-08-21T04:37:41;94670.41;;;18.46;95.78
43711;BME280;29309;42.682;23.372;2022-08-21T04:40:07;94662.72;;;18.49;96.35
43711;BME280;29309;42.682;23.372;2022-08-21T04:45:22;94669.69;;;18.44;97.20
43711;BME280;29309;42.682;23.372;2022-08-21T04:47:50;94670.41;;;18.46;97.41
43711;BME280;29309;42.682;23.372;2022-08-21T04:50:17;94672.47;;;18.42;97.39
43711;BME280;29309;42.682;23.372;2022-08-21T04:52:43;94676.09;;;18.50;97.76
43711;BME280;29309;42.682;23.372;2022-08-21T04:55:09;94678.38;;;18.64;97.35
43711;BME280;29309;42.682;23.372;2022-08-21T04:57:35;94674.25;;;18.75;96.14
43711;BME280;29309;42.682;23.372;2022-08-21T05:00:02;94667.38;;;18.90;94.73
43711;BME280;29309;42.682;23.372;2022-08-21T05:02:28;94666.13;;;19.07;93.88
43711;BME280;29309;42.682;23.372;2022-08-21T05:04:54;94665.38;;;19.03;93.52
43711;BME280;29309;42.682;23.372;2022-08-21T05:07:23;94656.31;;;19.08;93.95
43711;BME280;29309;42.682;23.372;2022-08-21T05:09:52;94670.53;;;19.29;92.98
43711;BME280;29309;42.682;23.372;2022-08-21T05:12:17;94657.06;;;19.13;92.04
43711;BME280;29309;42.682;23.372;2022-08-21T05:14:44;94661.81;;;18.94;93.34
43711;BME280;29309;42.682;23.372;2022-08-21T05:17:09;94673.28;;;19.21;91.80
43711;BME280;29309;42.682;23.372;2022-08-21T05:19:35;94667.72;;;19.29;91.78
43711;BME280;29309;42.682;23.372;2022-08-21T05:22:00;94671.47;;;19.55;91.73
43711;BME280;29309;42.682;23.372;2022-08-21T05:24:27;94665.28;;;19.77;90.57
43711;BME280;29309;42.682;23.372;2022-08-21T05:26:52;94668.88;;;19.92;89.27
43711;BME280;29309;42.682;23.372;2022-08-21T05:29:18;94654.84;;;20.02;88.99
43711;BME280;29309;42.682;23.372;2022-08-21T05:31:44;94665.53;;;20.26;88.05
43711;BME280;29309;42.682;23.372;2022-08-21T05:34:11;94672.63;;;20.33;86.86
43711;BME280;29309;42.682;23.372;2022-08-21T05:36:37;94659.94;;;20.28;85.84
43711;BME280;29309;42.682;23.372;2022-08-21T05:39:03;94671.97;;;20.42;84.54
43711;BME280;29309;42.682;23.372;2022-08-21T05:41:28;94669.88;;;20.51;83.83
43711;BME280;29309;42.682;23.372;2022-08-21T05:43:54;94659.28;;;20.51;83.41
43711;BME280;29309;42.682;23.372;2022-08-21T05:46:19;94657.19;;;20.50;82.82
43711;BME280;29309;42.682;23.372;2022-08-21T05:48:45;94651.59;;;20.66;81.84
43711;BME280;29309;42.682;23.372;2022-08-21T05:51:13;94650.22;;;20.81;81.92
43711;BME280;29309;42.682;23.372;2022-08-21T05:53:41;94655.88;;;20.93;82.18
43711;BME280;29309;42.682;23.372;2022-08-21T05:56:11;94643.19;;;21.00;81.59
43711;BME280;29309;42.682;23.372;2022-08-21T05:58:37;94650.97;;;21.14;79.63
43711;BME280;29309;42.682;23.372;2022-08-21T06:01:04;94650.25;;;21.09;79.37
43711;BME280;29309;42.682;23.372;2022-08-21T06:03:33;94646.06;;;21.23;78.93
43711;BME280;29309;42.682;23.372;2022-08-21T06:05:59;94653.09;;;21.36;78.25
43711;BME280;29309;42.682;23.372;2022-08-21T06:08:25;94654.53;;;21.27;78.85
43711;BME280;29309;42.682;23.372;2022-08-21T06:10:51;94659.44;;;21.38;79.82
43711;BME280;29309;42.682;23.372;2022-08-21T06:13:18;94653.81;;;21.50;79.77
43711;BME280;29309;42.682;23.372;2022-08-21T06:15:44;94651.69;;;21.57;80.25
43711;BME280;29309;42.682;23.372;2022-08-21T06:18:10;94648.84;;;21.91;80.29
43711;BME280;29309;42.682;23.372;2022-08-21T06:20:36;94649.31;;;22.46;77.60
43711;BME280;29309;42.682;23.372;2022-08-21T06:23:02;94649.09;;;22.95;75.53
43711;BME280;29309;42.682;23.372;2022-08-21T06:25:29;94651.50;;;23.58;72.78
43711;BME280;29309;42.682;23.372;2022-08-21T06:28:03;94661.50;;;24.22;68.40
43711;BME280;29309;42.682;23.372;2022-08-21T06:30:31;94660.28;;;24.64;64.49
43711;BME280;29309;42.682;23.372;2022-08-21T06:32:56;94651.53;;;24.82;63.40
43711;BME280;29309;42.682;23.372;2022-08-21T06:35:22;94656.34;;;24.95;63.86
43711;BME280;29309;42.682;23.372;2022-08-21T06:37:49;94647.44;;;25.22;62.84
43711;BME280;29309;42.682;23.372;2022-08-21T06:40:15;94647.31;;;25.30;61.97
43711;BME280;29309;42.682;23.372;2022-08-21T06:42:40;94650.03;;;25.36;61.74
43711;BME280;29309;42.682;23.372;2022-08-21T06:45:06;94657.13;;;25.37;61.07
43711;BME280;29309;42.682;23.372;2022-08-21T06:47:32;94649.44;;;25.31;61.32
43711;BME280;29309;42.682;23.372;2022-08-21T06:49:57;94651.47;;;25.37;62.50
43711;BME280;29309;42.682;23.372;2022-08-21T06:52:23;94655.47;;;25.54;59.56
43711;BME280;29309;42.682;23.372;2022-08-21T06:54:49;94666.38;;;25.37;60.32
43711;BME280;29309;42.682;23.372;2022-08-21T06:57:15;94658.44;;;25.46;59.20
43711;BME280;29309;42.682;23.372;2022-08-21T06:59:40;94657.75;;;25.43;59.09
43711;BME280;29309;42.682;23.372;2022-08-21T07:02:06;94669.75;;;25.50;59.01
43711;BME280;29309;42.682;23.372;2022-08-21T07:04:32;94667.56;;;25.51;59.21
43711;BME280;29309;42.682;23.372;2022-08-21T07:06:58;94659.81;;;25.49;59.53
43711;BME280;29309;42.682;23.372;2022-08-21T07:09:23;94663.69;;;25.72;59.11
43711;BME280;29309;42.682;23.372;2022-08-21T07:11:51;94656.03;;;26.04;58.24
43711;BME280;29309;42.682;23.372;2022-08-21T07:14:17;94653.84;;;26.45;57.80
43711;BME280;29309;42.682;23.372;2022-08-21T07:16:42;94654.31;;;26.92;54.62
43711;BME280;29309;42.682;23.372;2022-08-21T07:19:08;94665.00;;;26.92;53.17
43711;BME280;29309;42.682;23.372;2022-08-21T07:21:33;94650.81;;;27.21;54.01
43711;BME280;29309;42.682;23.372;2022-08-21T07:23:59;94661.63;;;27.47;53.75
43711;BME280;29309;42.682;23.372;2022-08-21T07:26:27;94652.19;;;27.83;53.38
43711;BME280;29309;42.682;23.372;2022-08-21T07:28:54;94641.06;;;28.27;50.55
43711;BME280;29309;42.682;23.372;2022-08-21T07:31:22;94638.59;;;28.64;49.87
43711;BME280;29309;42.682;23.372;2022-08-21T07:33:48;94654.75;;;28.99;48.31
43711;BME280;29309;42.682;23.372;2022-08-21T07:36:13;94634.97;;;29.15;47.78
43711;BME280;29309;42.682;23.372;2022-08-21T07:38:39;94634.53;;;29.29;46.33
43711;BME280;29309;42.682;23.372;2022-08-21T07:41:25;94635.66;;;29.61;45.86
43711;BME280;29309;42.682;23.372;2022-08-21T07:43:53;94627.88;;;29.80;44.97
43711;BME280;29309;42.682;23.372;2022-08-21T07:46:19;94633.28;;;29.91;44.11
43711;BME280;29309;42.682;23.372;2022-08-21T07:48:44;94620.38;;;30.12;43.00
43711;BME280;29309;42.682;23.372;2022-08-21T07:51:14;94607.78;;;30.45;42.36
43711;BME280;29309;42.682;23.372;2022-08-21T07:53:40;94618.66;;;30.40;42.38
43711;BME280;29309;42.682;23.372;2022-08-21T07:56:07;94629.56;;;30.56;42.44
43711;BME280;29309;42.682;23.372;2022-08-21T07:58:33;94630.72;;;30.63;41.51
43711;BME280;29309;42.682;23.372;2022-08-21T08:00:59;94622.06;;;30.65;40.77
43711;BME280;29309;42.682;23.372;2022-08-21T08:03:25;94626.78;;;30.73;40.61
43711;BME280;29309;42.682;23.372;2022-08-21T08:05:50;94615.47;;;30.69;41.03
43711;BME280;29309;42.682;23.372;2022-08-21T08:08:16;94622.06;;;30.84;41.38
43711;BME280;29309;42.682;23.372;2022-08-21T08:10:42;94621.13;;;30.71;40.71
43711;BME280;29309;42.682;23.372;2022-08-21T08:13:08;94626.59;;;30.58;40.62
43711;BME280;29309;42.682;23.372;2022-08-21T08:15:34;94635.78;;;30.21;41.02
43711;BME280;29309;42.682;23.372;2022-08-21T08:17:59;94634.47;;;29.98;41.30
43711;BME280;29309;42.682;23.372;2022-08-21T08:20:26;94632.63;;;29.88;41.95
43711;BME280;29309;42.682;23.372;2022-08-21T08:22:53;94631.00;;;29.72;42.95
43711;BME280;29309;42.682;23.372;2022-08-21T08:25:19;94629.38;;;29.57;43.88
43711;BME280;29309;42.682;23.372;2022-08-21T08:27:45;94627.53;;;29.47;44.19
43711;BME280;29309;42.682;23.372;2022-08-21T08:30:13;94630.84;;;29.33;44.40
43711;BME280;29309;42.682;23.372;2022-08-21T08:32:39;94629.91;;;29.16;44.39
43711;BME280;29309;42.682;23.372;2022-08-21T08:35:07;94635.13;;;29.09;44.68
43711;BME280;29309;42.682;23.372;2022-08-21T08:37:34;94629.53;;;29.05;45.15
43711;BME280;29309;42.682;23.372;2022-08-21T08:40:03;94627.75;;;28.94;46.16
43711;BME280;29309;42.682;23.372;2022-08-21T08:42:31;94631.84;;;29.01;46.11
43711;BME280;29309;42.682;23.372;2022-08-21T08:45:08;94627.47;;;28.79;46.67
43711;BME280;29309;42.682;23.372;2022-08-21T08:47:37;94638.84;;;28.81;45.68
43711;BME280;29309;42.682;23.372;2022-08-21T08:52:37;94630.03;;;28.64;47.68
43711;BME280;29309;42.682;23.372;2022-08-21T08:55:34;94625.69;;;28.67;47.80
43711;BME280;29309;42.682;23.372;2022-08-21T08:58:01;94625.69;;;28.67;47.84
43711;BME280;29309;42.682;23.372;2022-08-21T09:00:28;94627.16;;;28.64;48.09
43711;BME280;29309;42.682;23.372;2022-08-21T09:02:55;94619.47;;;28.59;47.73
43711;BME280;29309;42.682;23.372;2022-08-21T09:11:06;94613.81;;;28.05;47.35
43711;BME280;29309;42.682;23.372;2022-08-21T09:25:10;94594.44;;;27.54;47.77
43711;BME280;29309;42.682;23.372;2022-08-21T09:27:37;94590.16;;;27.24;49.07
43711;BME280;29309;42.682;23.372;2022-08-21T09:30:05;94585.13;;;27.27;48.76
43711;BME280;29309;42.682;23.372;2022-08-21T09:32:34;94576.94;;;27.42;48.95
43711;BME280;29309;42.682;23.372;2022-08-21T09:37:54;94578.47;;;27.36;48.71
43711;BME280;29309;42.682;23.372;2022-08-21T09:43:20;94593.28;;;26.83;49.95
43711;BME280;29309;42.682;23.372;2022-08-21T09:45:48;94589.34;;;26.66;49.66
43711;BME280;29309;42.682;23.372;2022-08-21T09:48:22;94582.75;;;26.74;49.95
43711;BME280;29309;42.682;23.372;2022-08-21T09:50:49;94579.72;;;26.84;50.06
43711;BME280;29309;42.682;23.372;2022-08-21T09:53:21;94585.94;;;26.92;49.60
43711;BME280;29309;42.682;23.372;2022-08-21T09:55:58;94586.88;;;26.81;49.94
43711;BME280;29309;42.682;23.372;2022-08-21T09:58:46;94580.31;;;26.88;49.52
43711;BME280;29309;42.682;23.372;2022-08-21T10:01:21;94583.00;;;26.97;50.04
43711;BME280;29309;42.682;23.372;2022-08-21T10:04:09;94570.16;;;26.98;50.20
43711;BME280;29309;42.682;23.372;2022-08-21T10:06:35;94567.81;;;26.73;49.91
43711;BME280;29309;42.682;23.372;2022-08-21T10:09:15;94571.44;;;26.72;50.21
43711;BME280;29309;42.682;23.372;2022-08-21T10:17:21;94560.38;;;25.86;52.81
43711;BME280;29309;42.682;23.372;2022-08-21T10:19:59;94560.44;;;25.41;54.45
43711;BME280;29309;42.682;23.372;2022-08-21T10:25:36;94556.41;;;24.83;56.42
43711;BME280;29309;42.682;23.372;2022-08-21T10:36:29;94549.69;;;25.07;56.33
43711;BME280;29309;42.682;23.372;2022-08-21T10:42:06;94546.69;;;24.17;58.92
43711;BME280;29309;42.682;23.372;2022-08-21T10:47:44;94532.34;;;24.31;58.47
43711;BME280;29309;42.682;23.372;2022-08-21T10:50:28;94535.38;;;24.66;58.31
43711;BME280;29309;42.682;23.372;2022-08-21T10:55:31;94528.75;;;24.81;57.61
43711;BME280;29309;42.682;23.372;2022-08-21T10:58:09;94518.66;;;24.92;58.08
43711;BME280;29309;42.682;23.372;2022-08-21T11:00:49;94531.06;;;25.16;57.39
43711;BME280;29309;42.682;23.372;2022-08-21T11:06:32;94512.66;;;25.13;56.13
43711;BME280;29309;42.682;23.372;2022-08-21T11:09:12;94508.88;;;24.34;58.61
43711;BME280;29309;42.682;23.372;2022-08-21T11:11:48;94498.75;;;24.94;57.80
43711;BME280;29309;42.682;23.372;2022-08-21T11:14:44;94504.31;;;25.03;58.29
43711;BME280;29309;42.682;23.372;2022-08-21T11:17:19;94502.97;;;25.36;55.74
43711;BME280;29309;42.682;23.372;2022-08-21T11:20:05;94499.06;;;25.58;53.95
43711;BME280;29309;42.682;23.372;2022-08-21T11:22:49;94487.66;;;25.60;54.28
43711;BME280;29309;42.682;23.372;2022-08-21T11:25:26;94488.09;;;25.75;54.72
43711;BME280;29309;42.682;23.372;2022-08-21T11:27:58;94496.56;;;26.12;53.19
43711;BME280;29309;42.682;23.372;2022-08-21T11:30:42;94494.56;;;26.39;53.29
43711;BME280;29309;42.682;23.372;2022-08-21T11:39:06;94485.16;;;26.47;51.58
43711;BME280;29309;42.682;23.372;2022-08-21T11:41:43;94501.59;;;26.44;51.46
43711;BME280;29309;42.682;23.372;2022-08-21T11:47:33;94494.88;;;26.25;50.31
43711;BME280;29309;42.682;23.372;2022-08-21T11:50:15;94487.53;;;26.36;49.55
43711;BME280;29309;42.682;23.372;2022-08-21T11:52:47;94484.88;;;25.93;49.42
43711;BME280;29309;42.682;23.372;2022-08-21T11:55:34;94481.47;;;25.86;51.14
43711;BME280;29309;42.682;23.372;2022-08-21T11:58:09;94480.44;;;25.65;51.58
43711;BME280;29309;42.682;23.372;2022-08-21T12:00:56;94489.72;;;25.99;50.38
43711;BME280;29309;42.682;23.372;2022-08-21T12:03:27;94485.38;;;26.02;48.74
43711;BME280;29309;42.682;23.372;2022-08-21T12:05:59;94478.72;;;25.80;50.10
43711;BME280;29309;42.682;23.372;2022-08-21T12:08:39;94474.75;;;25.65;51.22
43711;BME280;29309;42.682;23.372;2022-08-21T12:13:57;94462.44;;;25.77;51.94
43711;BME280;29309;42.682;23.372;2022-08-21T12:16:36;94462.88;;;25.55;51.93
43711;BME280;29309;42.682;23.372;2022-08-21T12:21:59;94476.00;;;25.74;51.31
43711;BME280;29309;42.682;23.372;2022-08-21T12:27:30;94483.00;;;25.42;51.83
43711;BME280;29309;42.682;23.372;2022-08-21T12:30:05;94488.78;;;25.36;52.00
43711;BME280;29309;42.682;23.372;2022-08-21T12:35:31;94480.75;;;25.10;52.66
43711;BME280;29309;42.682;23.372;2022-08-21T12:38:28;94468.00;;;25.07;53.10
43711;BME280;29309;42.682;23.372;2022-08-21T12:41:00;94469.13;;;24.83;54.51
43711;BME280;29309;42.682;23.372;2022-08-21T12:43:42;94478.34;;;24.82;54.71
43711;BME280;29309;42.682;23.372;2022-08-21T12:46:17;94471.34;;;24.75;54.51
43711;BME280;29309;42.682;23.372;2022-08-21T12:49:03;94472.63;;;24.86;54.87
43711;BME280;29309;42.682;23.372;2022-08-21T12:54:26;94460.50;;;24.89;54.99
43711;BME280;29309;42.682;23.372;2022-08-21T12:56:57;94471.91;;;24.85;54.98
43711;BME280;29309;42.682;23.372;2022-08-21T12:59:23;94468.63;;;24.69;55.15
43711;BME280;29309;42.682;23.372;2022-08-21T13:01:51;94461.56;;;24.66;55.66
43711;BME280;29309;42.682;23.372;2022-08-21T13:04:23;94465.53;;;24.40;56.33
43711;BME280;29309;42.682;23.372;2022-08-21T13:06:53;94460.78;;;24.24;55.74
43711;BME280;29309;42.682;23.372;2022-08-21T13:09:24;94460.53;;;24.40;56.08
43711;BME280;29309;42.682;23.372;2022-08-21T13:11:52;94449.97;;;24.35;56.06
43711;BME280;29309;42.682;23.372;2022-08-21T13:14:28;94458.69;;;24.21;56.99
43711;BME280;29309;42.682;23.372;2022-08-21T13:16:56;94461.56;;;24.19;57.16
43711;BME280;29309;42.682;23.372;2022-08-21T13:19:22;94469.13;;;24.36;57.24
43711;BME280;29309;42.682;23.372;2022-08-21T13:21:48;94454.59;;;24.57;57.05
43711;BME280;29309;42.682;23.372;2022-08-21T13:24:21;94456.91;;;24.46;57.80
43711;BME280;29309;42.682;23.372;2022-08-21T13:26:49;94439.69;;;24.58;57.43
43711;BME280;29309;42.682;23.372;2022-08-21T13:29:17;94440.69;;;24.40;58.26
43711;BME280;29309;42.682;23.372;2022-08-21T13:31:50;94447.41;;;24.19;58.77
43711;BME280;29309;42.682;23.372;2022-08-21T13:34:19;94443.31;;;24.03;59.20
43711;BME280;29309;42.682;23.372;2022-08-21T13:36:46;94413.44;;;24.11;58.62
43711;BME280;29309;42.682;23.372;2022-08-21T13:39:18;94413.50;;;24.07;59.44
43711;BME280;29309;42.682;23.372;2022-08-21T13:41:49;94426.50;;;24.38;59.00
43711;BME280;29309;42.682;23.372;2022-08-21T13:44:18;94423.44;;;24.55;58.70
43711;BME280;29309;42.682;23.372;2022-08-21T13:46:46;94441.25;;;24.49;59.78
43711;BME280;29309;42.682;23.372;2022-08-21T13:49:15;94449.16;;;24.42;59.84
43711;BME280;29309;42.682;23.372;2022-08-21T13:51:42;94450.69;;;24.35;60.61
43711;BME280;29309;42.682;23.372;2022-08-21T13:56:59;94443.94;;;24.10;61.68
43711;BME280;29309;42.682;23.372;2022-08-21T13:59:34;94438.88;;;24.19;62.17
43711;BME280;29309;42.682;23.372;2022-08-21T14:02:18;94433.22;;;24.17;59.78
43711;BME280;29309;42.682;23.372;2022-08-21T14:04:59;94427.44;;;24.27;60.12
43711;BME280;29309;42.682;23.372;2022-08-21T14:07:38;94422.38;;;24.31;59.72
43711;BME280;29309;42.682;23.372;2022-08-21T14:10:22;94431.84;;;24.16;61.00
43711;BME280;29309;42.682;23.372;2022-08-21T14:12:52;94423.38;;;24.10;61.04
43711;BME280;29309;42.682;23.372;2022-08-21T14:15:27;94428.25;;;24.19;61.34
43711;BME280;29309;42.682;23.372;2022-08-21T14:17:54;94409.28;;;24.03;61.91
43711;BME280;29309;42.682;23.372;2022-08-21T14:20:31;94422.59;;;24.17;62.55
43711;BME280;29309;42.682;23.372;2022-08-21T14:22:57;94423.06;;;24.32;61.43